Gio-gio — FGE6517 — position and weather

sailwx.info

Track history (hours):
 
Tides and Currents Weather Stations Pressure Air Temp Water Temp Dewpoint Dewpoint Depression Visibility Wind Speed Wind Dir Waves Ship Positions

Gio-gio

Last reported at 2018-May-20 19:07 UTC. Time now 2018-May-20 21:52 UTC.
Position N 47°35' W 003°01'.

Length 13 m.

Type: Pleasure craft. MMSI: 227138620.

Date/timePositionNaut miles runAvg speedWind from/ knotsBaromVisibWave heightAir tempDewpointWater temp
2018-May-20 19:07N 47°35' W 003°01'0 0.0
2018-May-20 18:52N 47°35' W 003°01'0 0.0
2018-May-20 18:29N 47°35' W 003°01'0 0.0
2018-May-20 17:57N 47°35' W 003°01'1 2.3
2018-May-20 17:29N 47°34' W 003°01'3 6.6
2018-May-20 17:00N 47°31' W 003°01'3 6.7
2018-May-20 16:30N 47°28' W 003°02'3 6.1
2018-May-20 15:59N 47°26' W 003°06'4 6.8
2018-May-20 15:28N 47°25' W 003°10'3 5.2
2018-May-20 14:59N 47°24' W 003°14'2 0.4
2018-May-20 10:34N 47°23' W 003°15'2 5.8
2018-May-20 10:18N 47°24' W 003°17'6 0.5
2018-May-19 22:33N 47°21' W 003°09'0 0.0
2018-May-19 18:27N 47°21' W 003°09'0 0.0
2018-May-19 17:39N 47°21' W 003°09'0 0.0
2018-May-19 16:43N 47°21' W 003°09'0 0.2
2018-May-19 16:30N 47°21' W 003°09'2 4.0
2018-May-19 16:00N 47°23' W 003°08'  
Track history (hours):
 
Tides and Currents Weather Stations Pressure Air Temp Water Temp Dewpoint Dewpoint Depression Visibility Wind Speed Wind Dir Waves Ship Positions

Gio-gio

Last reported at 2018-May-20 19:07 UTC. Time now 2018-May-20 21:52 UTC.
Position N 47°35' W 003°01'.

Length 13 m.

Type: Pleasure craft. MMSI: 227138620.

Date/timePositionNaut miles runAvg speedWind from/ knotsBaromVisibWave heightAir tempDewpointWater temp
2018-May-20 19:07N 47°35' W 003°01'0 0.0
2018-May-20 18:52N 47°35' W 003°01'0 0.0
2018-May-20 18:29N 47°35' W 003°01'0 0.0
2018-May-20 17:57N 47°35' W 003°01'1 2.3
2018-May-20 17:29N 47°34' W 003°01'3 6.6
2018-May-20 17:00N 47°31' W 003°01'3 6.7
2018-May-20 16:30N 47°28' W 003°02'3 6.1
2018-May-20 15:59N 47°26' W 003°06'4 6.8
2018-May-20 15:28N 47°25' W 003°10'3 5.2
2018-May-20 14:59N 47°24' W 003°14'2 0.4
2018-May-20 10:34N 47°23' W 003°15'2 5.8
2018-May-20 10:18N 47°24' W 003°17'6 0.5
2018-May-19 22:33N 47°21' W 003°09'0 0.0
2018-May-19 18:27N 47°21' W 003°09'0 0.0
2018-May-19 17:39N 47°21' W 003°09'0 0.0
2018-May-19 16:43N 47°21' W 003°09'0 0.2
2018-May-19 16:30N 47°21' W 003°09'2 4.0
2018-May-19 16:00N 47°23' W 003°08'  

Dump ship's entire track history